トロンハイム の空港の天気 - METARとTAF

Trondheim / Vaernes ( ENVA / TRD ) - ノルウェー ヌール・トロンデラーグ県、Stjordal
飛行場実況気象(Metar)
観測時間05/28 01:50 CEST (05/27 23:50 UTC)
風向・風速西南西 7m/s
視程8000m
天気現象弱い雨
少しの雲 雲底高度 180m
全天の8割程度の雲 雲底高度 910m
気温7℃
湿度87%
気圧1030hPa
METARENVA 272350Z 24013KT 8000 -RA FEW006 BKN030 07/05 Q1030 RMK WIND 670FT 25015G25KT
過去の天気等 Google飛行場航空写真 Wunderground天気予報

過去48時間のMETAR

飛行場予報(TAF)
発表時間: -
28日2時 CEST ~ 28日12時 CEST に一時的に
天気現象しゅう雨
全天の8割程度の塔状積雲 雲底高度 430m
28日2時 CEST ~ 28日17時 CEST に一時的に
風向・風速西 8m/s 瞬間風速 13m/s
TAF ENVA 2800/2824 25008KT 9999 -SHRA FEW020 BKN040
TEMPO 2800/2810 SHRA BKN014TCU
TEMPO 2800/2815 28015G25KT